createdAt,value
2023-05-15T00:00:40.584Z,13.717651
2023-05-15T00:01:50.348Z,13.717651
2023-05-15T00:02:59.092Z,13.69751
2023-05-15T00:04:06.639Z,13.717651
2023-05-15T00:05:16.429Z,13.737793
2023-05-15T00:06:25.012Z,13.717651
2023-05-15T00:07:34.660Z,13.69751
2023-05-15T00:08:43.344Z,13.747864
2023-05-15T00:09:52.016Z,13.737793
2023-05-15T00:11:02.252Z,13.717651
2023-05-15T00:12:11.346Z,13.768005
2023-05-15T00:13:20.995Z,13.627014
2023-05-15T00:14:30.639Z,13.69751
2023-05-15T00:15:39.314Z,13.737793
2023-05-15T00:16:48.979Z,13.616943
2023-05-15T00:17:57.781Z,13.596802
2023-05-15T00:19:07.424Z,13.677368
2023-05-15T00:20:17.071Z,13.69751
2023-05-15T00:21:25.749Z,13.677368
2023-05-15T00:22:35.397Z,13.69751
2023-05-15T00:23:45.056Z,13.747864
2023-05-15T00:24:53.698Z,13.768005
2023-05-15T00:26:03.392Z,13.737793
2023-05-15T00:27:12.026Z,13.778076
2023-05-15T00:28:20.673Z,13.717651
2023-05-15T00:29:30.309Z,13.717651
2023-05-15T00:30:38.003Z,13.616943
2023-05-15T00:31:47.692Z,13.616943
2023-05-15T00:32:58.352Z,13.647156
2023-05-15T00:34:06.980Z,13.616943
2023-05-15T00:35:16.740Z,13.667297
2023-05-15T00:36:25.445Z,13.69751
2023-05-15T00:37:34.081Z,13.667297
2023-05-15T00:38:43.702Z,13.69751
2023-05-15T00:39:52.421Z,13.677368
2023-05-15T00:41:02.102Z,13.707581
2023-05-15T00:42:11.757Z,13.596802
2023-05-15T00:43:21.410Z,13.616943
2023-05-15T00:44:31.088Z,13.616943
2023-05-15T00:45:40.738Z,13.586731
2023-05-15T00:46:49.429Z,13.526306
2023-05-15T00:47:59.064Z,13.345032
2023-05-15T00:49:08.732Z,13.254395
2023-05-15T00:50:18.405Z,13.274536
2023-05-15T00:51:28.060Z,13.254395
2023-05-15T00:52:37.817Z,13.204041
2023-05-15T00:53:47.472Z,13.284607
2023-05-15T00:54:56.125Z,13.19397
2023-05-15T00:56:05.809Z,13.284607
2023-05-15T00:57:14.460Z,13.385315
2023-05-15T00:58:23.169Z,13.435669
2023-05-15T00:59:32.841Z,13.284607
2023-05-15T01:00:42.565Z,13.385315
2023-05-15T01:01:52.168Z,13.486023
2023-05-15T01:03:02.132Z,13.516235
2023-05-15T01:04:11.511Z,13.536377
2023-05-15T01:05:21.173Z,13.536377
2023-05-15T01:06:29.877Z,13.596802
2023-05-15T01:07:37.546Z,13.596802
2023-05-15T01:08:47.253Z,13.566589
2023-05-15T01:09:55.876Z,13.526306
2023-05-15T01:11:04.521Z,13.516235
2023-05-15T01:12:13.215Z,13.496094
2023-05-15T01:13:22.901Z,13.496094
2023-05-15T01:14:32.541Z,13.536377
2023-05-15T01:15:41.196Z,13.526306
2023-05-15T01:16:50.907Z,13.465881
2023-05-15T01:18:00.693Z,13.405457
2023-05-15T01:19:08.229Z,13.455811
2023-05-15T01:20:17.869Z,13.304749
2023-05-15T01:21:27.592Z,13.314819
2023-05-15T01:22:36.240Z,13.234253
2023-05-15T01:23:45.944Z,13.012695
2023-05-15T01:24:54.616Z,13.123474
2023-05-15T01:26:03.266Z,13.19397
2023-05-15T01:27:12.933Z,13.304749
2023-05-15T01:28:21.577Z,13.234253
2023-05-15T01:29:31.213Z,13.234253
2023-05-15T01:30:40.915Z,13.284607
2023-05-15T01:31:48.581Z,13.284607
2023-05-15T01:32:58.227Z,13.465881
2023-05-15T01:34:07.841Z,13.486023
2023-05-15T01:35:15.509Z,13.526306
2023-05-15T01:36:25.183Z,13.415527
2023-05-15T01:37:33.876Z,13.516235
2023-05-15T01:38:43.550Z,13.486023
2023-05-15T01:39:53.248Z,13.526306
2023-05-15T01:41:00.931Z,13.536377
2023-05-15T01:42:10.571Z,13.566589
2023-05-15T01:43:19.225Z,13.415527
2023-05-15T01:44:27.927Z,13.375244
2023-05-15T01:45:37.617Z,13.455811
2023-05-15T01:46:45.404Z,13.526306
2023-05-15T01:47:54.923Z,13.486023
2023-05-15T01:49:04.643Z,13.526306
2023-05-15T01:50:13.282Z,13.465881
2023-05-15T01:51:22.913Z,13.435669
2023-05-15T01:52:32.619Z,13.455811
2023-05-15T01:53:42.324Z,13.304749
2023-05-15T01:54:52.102Z,13.405457
2023-05-15T01:56:00.757Z,13.526306
2023-05-15T01:57:09.405Z,13.586731
2023-05-15T01:58:19.054Z,13.486023
2023-05-15T01:59:26.709Z,13.375244
2023-05-15T02:00:36.354Z,13.284607
2023-05-15T02:01:45.046Z,13.304749
2023-05-15T02:02:52.737Z,13.284607
2023-05-15T02:04:02.484Z,13.334961
2023-05-15T02:05:12.043Z,13.314819
2023-05-15T02:06:21.708Z,13.284607
2023-05-15T02:07:31.355Z,13.365173
2023-05-15T02:08:41.062Z,13.345032
2023-05-15T02:09:50.710Z,13.345032
2023-05-15T02:10:59.390Z,13.334961
2023-05-15T02:12:07.027Z,13.284607
2023-05-15T02:13:16.825Z,13.435669
2023-05-15T02:14:25.393Z,13.405457
2023-05-15T02:15:35.035Z,13.304749
2023-05-15T02:16:44.792Z,13.385315
2023-05-15T02:17:52.470Z,13.415527
2023-05-15T02:19:02.120Z,13.496094
2023-05-15T02:20:11.745Z,13.536377
2023-05-15T02:21:20.388Z,13.375244
2023-05-15T02:22:30.054Z,13.385315
2023-05-15T02:23:37.720Z,13.415527
2023-05-15T02:24:47.375Z,13.405457
2023-05-15T02:25:57.020Z,13.183899
2023-05-15T02:27:06.996Z,13.234253
2023-05-15T02:28:16.637Z,13.284607
2023-05-15T02:29:26.333Z,13.345032
2023-05-15T02:30:35.970Z,13.435669
2023-05-15T02:31:45.648Z,13.415527
2023-05-15T02:32:55.310Z,13.435669
2023-05-15T02:34:03.921Z,13.415527
2023-05-15T02:35:13.584Z,13.385315
2023-05-15T02:36:22.402Z,13.455811
2023-05-15T02:37:32.275Z,13.365173
2023-05-15T02:38:41.942Z,13.385315
2023-05-15T02:39:50.601Z,13.304749
2023-05-15T02:41:00.302Z,13.304749
2023-05-15T02:42:07.994Z,13.204041
2023-05-15T02:43:17.675Z,13.304749
2023-05-15T02:44:27.328Z,13.274536
2023-05-15T02:45:35.040Z,13.083191
2023-05-15T02:46:44.646Z,13.204041
2023-05-15T02:47:53.346Z,13.113403
2023-05-15T02:49:00.950Z,12.952271
2023-05-15T02:50:10.682Z,12.911987
2023-05-15T02:51:19.357Z,12.972412
2023-05-15T02:52:28.999Z,12.982483
2023-05-15T02:53:38.666Z,13.012695
2023-05-15T02:54:48.416Z,13.012695
2023-05-15T02:55:58.154Z,13.093262
2023-05-15T02:57:05.826Z,13.163757
2023-05-15T02:58:15.459Z,13.093262
2023-05-15T02:59:25.144Z,13.032837
2023-05-15T03:00:34.829Z,13.123474
2023-05-15T03:01:44.537Z,13.123474
2023-05-15T03:02:54.215Z,13.224182
2023-05-15T03:04:03.864Z,13.234253
2023-05-15T03:05:13.560Z,13.133545
2023-05-15T03:06:21.194Z,13.204041
2023-05-15T03:07:30.846Z,13.284607
2023-05-15T03:08:40.496Z,13.314819
2023-05-15T03:09:49.194Z,13.183899
2023-05-15T03:10:58.986Z,13.204041
2023-05-15T03:12:07.515Z,13.304749
2023-05-15T03:13:17.202Z,13.304749
2023-05-15T03:14:26.877Z,13.123474
2023-05-15T03:15:36.565Z,13.183899
2023-05-15T03:16:46.226Z,13.163757
2023-05-15T03:17:55.905Z,13.163757
2023-05-15T03:19:05.577Z,13.163757
2023-05-15T03:20:15.229Z,13.304749
2023-05-15T03:21:23.904Z,13.204041
2023-05-15T03:22:32.611Z,13.19397
2023-05-15T03:23:42.340Z,13.093262
2023-05-15T03:24:50.983Z,13.083191
2023-05-15T03:25:59.666Z,13.183899
2023-05-15T03:27:09.329Z,13.234253
2023-05-15T03:28:17.005Z,13.133545
2023-05-15T03:29:26.651Z,13.113403
2023-05-15T03:30:35.300Z,13.123474
2023-05-15T03:31:43.962Z,13.153687
2023-05-15T03:32:53.692Z,13.113403
2023-05-15T03:34:03.308Z,13.183899
2023-05-15T03:35:12.954Z,13.204041
2023-05-15T03:36:22.661Z,13.183899
2023-05-15T03:37:31.348Z,13.123474
2023-05-15T03:38:41.009Z,13.163757
2023-05-15T03:39:49.667Z,13.153687
2023-05-15T03:40:58.336Z,13.224182
2023-05-15T03:42:06.990Z,13.234253
2023-05-15T03:43:16.634Z,13.123474
2023-05-15T03:44:26.293Z,13.123474
2023-05-15T03:45:35.954Z,13.304749
2023-05-15T03:46:44.624Z,13.385315
2023-05-15T03:47:54.348Z,13.254395
2023-05-15T03:49:03.945Z,13.204041
2023-05-15T03:50:12.583Z,13.224182
2023-05-15T03:51:22.370Z,13.204041
2023-05-15T03:52:31.008Z,13.274536
2023-05-15T03:53:41.657Z,13.375244
2023-05-15T03:54:50.318Z,13.234253
2023-05-15T03:56:00.022Z,13.163757
2023-05-15T03:57:09.710Z,13.002625
2023-05-15T03:58:19.367Z,13.052979
2023-05-15T03:59:28.997Z,13.183899
2023-05-15T04:00:38.680Z,13.083191
2023-05-15T04:02:02.488Z,13.224182
2023-05-15T04:02:56.971Z,13.19397
2023-05-15T04:04:06.671Z,13.284607
2023-05-15T04:05:16.367Z,13.183899
2023-05-15T04:06:25.997Z,13.365173
2023-05-15T04:07:34.661Z,13.385315
2023-05-15T04:08:44.359Z,13.365173
2023-05-15T04:09:54.029Z,13.224182
2023-05-15T04:11:02.679Z,13.284607
2023-05-15T04:12:12.375Z,13.365173
2023-05-15T04:13:21.002Z,13.274536
2023-05-15T04:14:29.677Z,13.345032
2023-05-15T04:15:39.359Z,13.345032
2023-05-15T04:16:49.044Z,13.516235
2023-05-15T04:17:58.706Z,13.435669
2023-05-15T04:19:08.502Z,13.465881
2023-05-15T04:20:17.301Z,13.556519
2023-05-15T04:21:26.886Z,13.526306
2023-05-15T04:22:35.550Z,13.486023
2023-05-15T04:23:44.283Z,13.385315
2023-05-15T04:24:53.970Z,13.274536
2023-05-15T04:26:02.631Z,13.284607
2023-05-15T04:27:11.413Z,13.314819
2023-05-15T04:28:21.010Z,13.234253
2023-05-15T04:29:30.692Z,13.314819
2023-05-15T04:30:40.357Z,13.314819
2023-05-15T04:31:48.068Z,13.375244
2023-05-15T04:32:56.753Z,13.385315
2023-05-15T04:34:06.377Z,13.133545
2023-05-15T04:35:14.060Z,13.113403
2023-05-15T04:36:23.738Z,12.982483
2023-05-15T04:37:33.388Z,13.093262
2023-05-15T04:38:43.150Z,13.133545
2023-05-15T04:39:52.885Z,13.133545
2023-05-15T04:41:02.540Z,13.19397
2023-05-15T04:42:11.180Z,13.234253
2023-05-15T04:43:20.896Z,13.254395
2023-05-15T04:44:29.568Z,13.405457
2023-05-15T04:45:39.233Z,13.516235
2023-05-15T04:46:48.891Z,13.586731
2023-05-15T04:47:57.679Z,13.667297
2023-05-15T04:49:07.280Z,13.778076
2023-05-15T04:50:16.256Z,13.919067
2023-05-15T04:51:25.962Z,13.778076
2023-05-15T04:52:35.692Z,13.808289
2023-05-15T04:53:45.348Z,13.848572
2023-05-15T04:54:55.013Z,13.858643
2023-05-15T04:56:03.649Z,13.808289
2023-05-15T04:57:12.382Z,13.848572
2023-05-15T04:58:22.105Z,13.747864
2023-05-15T04:59:31.761Z,13.717651
2023-05-15T05:00:41.422Z,13.848572
2023-05-15T05:01:51.203Z,13.848572
2023-05-15T05:03:00.853Z,13.868713
2023-05-15T05:04:10.509Z,13.959351
2023-05-15T05:05:20.149Z,14.039917
2023-05-15T05:06:30.418Z,14.100342
2023-05-15T05:07:38.516Z,14.251404
2023-05-15T05:08:47.191Z,14.291687
2023-05-15T05:09:56.844Z,14.301758
2023-05-15T05:11:05.578Z,14.362183
2023-05-15T05:12:13.260Z,14.412537
2023-05-15T05:13:22.944Z,14.432678
2023-05-15T05:14:30.642Z,14.442749
2023-05-15T05:15:39.324Z,14.472961
2023-05-15T05:16:48.977Z,14.503174
2023-05-15T05:17:57.703Z,14.472961
2023-05-15T05:19:07.368Z,14.513245
2023-05-15T05:20:16.058Z,14.442749
2023-05-15T05:21:24.729Z,14.372253
2023-05-15T05:22:34.497Z,14.221191
2023-05-15T05:23:44.164Z,14.231262
2023-05-15T05:24:53.859Z,14.170837
2023-05-15T05:26:04.234Z,14.251404
2023-05-15T05:27:11.221Z,14.33197
2023-05-15T05:28:20.942Z,14.372253
2023-05-15T05:29:30.626Z,14.442749
2023-05-15T05:30:38.348Z,14.412537
2023-05-15T05:31:48.078Z,14.513245
2023-05-15T05:32:56.824Z,14.553528
2023-05-15T05:34:06.429Z,14.372253
2023-05-15T05:35:16.149Z,14.321899
2023-05-15T05:36:24.818Z,14.291687
2023-05-15T05:37:34.536Z,14.281616
2023-05-15T05:38:43.288Z,14.180908
2023-05-15T05:39:51.946Z,14.150696
2023-05-15T05:41:01.649Z,14.261475
2023-05-15T05:42:10.283Z,14.251404
2023-05-15T05:43:19.015Z,14.261475
2023-05-15T05:44:28.744Z,14.291687
2023-05-15T05:45:37.457Z,14.362183
2023-05-15T05:46:47.230Z,14.321899
2023-05-15T05:47:56.877Z,14.261475
2023-05-15T05:49:04.571Z,14.281616
2023-05-15T05:50:14.252Z,14.412537
2023-05-15T05:51:22.893Z,14.483032
2023-05-15T05:52:31.644Z,14.432678
2023-05-15T05:53:41.315Z,14.362183
2023-05-15T05:54:50.004Z,14.412537
2023-05-15T05:55:59.645Z,14.402466
2023-05-15T05:57:08.338Z,14.483032
2023-05-15T05:58:24.805Z,14.543457
2023-05-15T05:59:27.688Z,14.483032
2023-05-15T06:00:35.438Z,14.483032
2023-05-15T06:01:44.150Z,14.483032
2023-05-15T06:02:54.007Z,14.442749
2023-05-15T06:04:03.591Z,14.513245
2023-05-15T06:05:13.205Z,14.412537
2023-05-15T06:06:21.868Z,14.442749
2023-05-15T06:07:30.584Z,14.20105
2023-05-15T06:08:40.253Z,14.231262
2023-05-15T06:09:47.927Z,14.321899
2023-05-15T06:10:56.598Z,14.291687
2023-05-15T06:12:06.301Z,14.231262
2023-05-15T06:13:15.988Z,14.231262
2023-05-15T06:14:25.765Z,14.251404
2023-05-15T06:15:34.466Z,14.33197
2023-05-15T06:16:43.226Z,14.442749
2023-05-15T06:17:52.929Z,14.553528
2023-05-15T06:19:01.667Z,14.352112
2023-05-15T06:20:11.201Z,14.372253
2023-05-15T06:21:20.899Z,14.472961
2023-05-15T06:22:30.553Z,14.291687
2023-05-15T06:23:40.221Z,14.301758
2023-05-15T06:24:49.935Z,14.412537
2023-05-15T06:25:58.659Z,14.472961
2023-05-15T06:27:08.354Z,14.362183
2023-05-15T06:28:18.023Z,14.251404
2023-05-15T06:29:26.648Z,14.442749
2023-05-15T06:30:36.382Z,14.362183
2023-05-15T06:31:44.026Z,14.533386
2023-05-15T06:32:53.775Z,14.513245
2023-05-15T06:34:03.419Z,14.58374
2023-05-15T06:35:13.156Z,14.634094
2023-05-15T06:36:22.847Z,14.785156
2023-05-15T06:37:31.557Z,14.775085
2023-05-15T06:38:41.226Z,14.83551
2023-05-15T06:39:49.923Z,14.906006
2023-05-15T06:40:58.693Z,14.936218
2023-05-15T06:42:08.465Z,14.875793
2023-05-15T06:43:18.188Z,14.805298
2023-05-15T06:44:27.876Z,14.875793
2023-05-15T06:45:37.556Z,14.906006
2023-05-15T06:46:47.257Z,15.036926
2023-05-15T06:47:58.568Z,15.097351
2023-05-15T06:49:06.594Z,15.147705
2023-05-15T06:50:15.276Z,14.986572
2023-05-15T06:51:25.009Z,14.916077
2023-05-15T06:52:33.687Z,14.805298
2023-05-15T06:53:43.427Z,14.805298
2023-05-15T06:54:53.136Z,14.966431
2023-05-15T06:56:00.805Z,14.885864
2023-05-15T06:57:10.473Z,14.916077
2023-05-15T06:58:18.186Z,15.067139
2023-05-15T06:59:27.998Z,14.805298
2023-05-15T07:00:37.494Z,14.875793
2023-05-15T07:01:47.231Z,15.137634
2023-05-15T07:02:56.957Z,14.986572
2023-05-15T07:04:05.653Z,14.855652
2023-05-15T07:05:16.967Z,14.966431
2023-05-15T07:06:26.553Z,14.996643
2023-05-15T07:07:36.209Z,15.107422
2023-05-15T07:08:45.979Z,15.107422
2023-05-15T07:09:54.726Z,15.08728
2023-05-15T07:11:03.389Z,14.885864
2023-05-15T07:12:13.064Z,14.58374
2023-05-15T07:13:22.813Z,14.513245
2023-05-15T07:14:30.526Z,14.765015
2023-05-15T07:15:40.209Z,14.815369
2023-05-15T07:16:47.880Z,14.906006
2023-05-15T07:17:56.710Z,14.906006
2023-05-15T07:19:06.253Z,15.016785
2023-05-15T07:20:13.909Z,14.966431
2023-05-15T07:21:23.587Z,14.986572
2023-05-15T07:22:32.890Z,15.057068
2023-05-15T07:23:42.954Z,15.187988
2023-05-15T07:24:52.597Z,15.248413
2023-05-15T07:26:00.347Z,15.057068
2023-05-15T07:27:11.098Z,14.986572
2023-05-15T07:28:20.784Z,15.016785
2023-05-15T07:29:29.490Z,15.147705
2023-05-15T07:30:39.251Z,15.288696
2023-05-15T07:31:48.926Z,15.520325
2023-05-15T07:32:56.626Z,15.903015
2023-05-15T07:34:06.298Z,15.83252
2023-05-15T07:35:13.942Z,15.973511
2023-05-15T07:36:22.679Z,16.154785
2023-05-15T07:37:32.402Z,16.174927
2023-05-15T07:38:41.126Z,16.406555
2023-05-15T07:39:50.858Z,16.809387
2023-05-15T07:41:00.564Z,16.759033
2023-05-15T07:42:08.251Z,16.658325
2023-05-15T07:43:17.961Z,16.8396
2023-05-15T07:44:25.662Z,17.010803
2023-05-15T07:45:34.400Z,16.889954
2023-05-15T07:46:44.167Z,16.759033
2023-05-15T07:47:52.679Z,16.789246
2023-05-15T07:49:02.436Z,16.688538
2023-05-15T07:50:11.039Z,16.678467
2023-05-15T07:51:20.681Z,16.648254
2023-05-15T07:52:31.414Z,16.738892
2023-05-15T07:53:40.003Z,16.930237
2023-05-15T07:54:48.715Z,17.141724
2023-05-15T07:55:58.450Z,16.910095
2023-05-15T07:57:07.087Z,17.081299
2023-05-15T07:58:16.753Z,17.09137
2023-05-15T07:59:25.554Z,17.111511
2023-05-15T08:00:33.151Z,16.990662
2023-05-15T08:01:42.873Z,16.8396
2023-05-15T08:02:51.643Z,16.889954
2023-05-15T08:04:00.502Z,17.010803
2023-05-15T08:05:09.936Z,16.910095
2023-05-15T08:06:19.615Z,16.990662
2023-05-15T08:07:29.330Z,16.5979
2023-05-15T08:08:37.999Z,16.497192
2023-05-15T08:09:47.659Z,16.779175
2023-05-15T08:10:56.328Z,17.192078
2023-05-15T08:12:05.049Z,17.383423
2023-05-15T08:13:14.734Z,17.705688
2023-05-15T08:14:24.455Z,17.997742
2023-05-15T08:15:34.158Z,18.048096
2023-05-15T08:16:43.800Z,18.189087
2023-05-15T08:17:52.545Z,18.521423
2023-05-15T08:19:02.343Z,18.924255
2023-05-15T08:20:11.901Z,19.206238
2023-05-15T08:21:21.581Z,19.508362
2023-05-15T08:22:31.298Z,19.256592
2023-05-15T08:23:40.997Z,18.833618
2023-05-15T08:24:49.656Z,18.219299
2023-05-15T08:25:59.334Z,17.917175
2023-05-15T08:27:08.007Z,18.189087
2023-05-15T08:28:15.716Z,18.531494
2023-05-15T08:29:25.397Z,18.964539
2023-05-15T08:30:33.070Z,19.508362
2023-05-15T08:31:42.856Z,19.266663
2023-05-15T08:32:52.565Z,19.538574
2023-05-15T08:34:01.205Z,19.518433
2023-05-15T08:35:10.902Z,19.508362
2023-05-15T08:36:20.620Z,19.518433
2023-05-15T08:37:29.300Z,19.266663
2023-05-15T08:38:39.025Z,19.266663
2023-05-15T08:39:47.683Z,18.833618
2023-05-15T08:40:57.490Z,18.73291
2023-05-15T08:42:07.208Z,18.712769
2023-05-15T08:43:15.871Z,18.471069
2023-05-15T08:44:25.553Z,18.440857
2023-05-15T08:45:33.232Z,18.632202
2023-05-15T08:46:43.020Z,18.662415
2023-05-15T08:47:52.801Z,19.024963
2023-05-15T08:49:02.498Z,19.286804
2023-05-15T08:50:11.046Z,19.48822
2023-05-15T08:51:20.857Z,19.911194
2023-05-15T08:52:30.475Z,20.092468
2023-05-15T08:53:40.153Z,19.891052
2023-05-15T08:54:49.813Z,20.001831
2023-05-15T08:55:59.576Z,20.324097
2023-05-15T08:57:09.233Z,20.555725
2023-05-15T08:58:17.910Z,20.918274
2023-05-15T08:59:26.637Z,21.351318
2023-05-15T09:00:35.384Z,21.361389
2023-05-15T09:01:45.086Z,20.877991
2023-05-15T09:02:54.809Z,20.716858
2023-05-15T09:04:03.444Z,20.686646
2023-05-15T09:05:13.177Z,20.767212
2023-05-15T09:06:22.879Z,20.414734
2023-05-15T09:07:32.532Z,20.394592
2023-05-15T09:08:42.212Z,20.344238
2023-05-15T09:09:51.956Z,20.021973
2023-05-15T09:11:01.635Z,19.941406
2023-05-15T09:12:11.300Z,19.760132
2023-05-15T09:13:19.957Z,19.538574
2023-05-15T09:14:28.660Z,19.397583
2023-05-15T09:15:37.341Z,19.306946
2023-05-15T09:16:45.998Z,19.216309
2023-05-15T09:17:55.697Z,19.075317
2023-05-15T09:19:05.412Z,18.98468
2023-05-15T09:20:15.054Z,18.954468
2023-05-15T09:21:24.764Z,18.904114
2023-05-15T09:22:33.455Z,18.833618
2023-05-15T09:23:43.150Z,18.994751
2023-05-15T09:24:52.800Z,19.035034
2023-05-15T09:26:01.470Z,19.065247
2023-05-15T09:27:11.150Z,19.024963
2023-05-15T09:28:20.870Z,19.206238
2023-05-15T09:29:30.514Z,19.3573
2023-05-15T09:30:40.183Z,19.538574
2023-05-15T09:31:48.948Z,19.689636
2023-05-15T09:32:58.619Z,19.850769
2023-05-15T09:34:07.243Z,20.072327
2023-05-15T09:35:15.931Z,20.314026
2023-05-15T09:36:26.572Z,20.74707
2023-05-15T09:37:34.343Z,20.777283
2023-05-15T09:38:42.994Z,20.918274
2023-05-15T09:39:52.683Z,20.958557
2023-05-15T09:41:02.367Z,21.069336
2023-05-15T09:42:12.041Z,20.86792
2023-05-15T09:43:21.708Z,20.545654
2023-05-15T09:44:30.359Z,20.072327
2023-05-15T09:45:40.042Z,19.760132
2023-05-15T09:46:48.822Z,19.437866
2023-05-15T09:47:57.513Z,19.387512
2023-05-15T09:49:07.086Z,19.538574
2023-05-15T09:50:14.733Z,19.73999
2023-05-15T09:51:24.406Z,19.407654
2023-05-15T09:52:34.122Z,19.689636
2023-05-15T09:53:42.776Z,19.810486
2023-05-15T09:54:52.430Z,20.021973
2023-05-15T09:56:01.116Z,20.263672
2023-05-15T09:57:10.829Z,20.475159
2023-05-15T09:58:20.533Z,20.837708
2023-05-15T09:59:29.178Z,20.626221
2023-05-15T10:00:47.394Z,20.465088
2023-05-15T10:01:49.629Z,20.465088
2023-05-15T10:02:58.265Z,20.394592
2023-05-15T10:04:07.908Z,20.696716
2023-05-15T10:05:16.576Z,20.898132
2023-05-15T10:06:27.250Z,21.452026
2023-05-15T10:07:36.953Z,21.794434
2023-05-15T10:08:46.596Z,21.975708
2023-05-15T10:09:56.258Z,22.136841
2023-05-15T10:11:05.063Z,22.388611
2023-05-15T10:12:13.657Z,22.600098
2023-05-15T10:13:23.335Z,22.63031
2023-05-15T10:14:33.027Z,22.146912
2023-05-15T10:15:42.715Z,21.875
2023-05-15T10:16:52.369Z,22.106628
2023-05-15T10:18:01.040Z,22.227478
2023-05-15T10:19:10.750Z,22.428894
2023-05-15T10:20:20.410Z,22.720947
2023-05-15T10:21:30.086Z,22.932434
2023-05-15T10:22:39.741Z,23.153992
2023-05-15T10:23:49.428Z,22.962646
2023-05-15T10:24:59.113Z,23.184204
2023-05-15T10:26:08.815Z,23.204346
2023-05-15T10:27:16.474Z,23.234558
2023-05-15T10:28:25.196Z,23.063354
2023-05-15T10:29:34.918Z,22.851868
2023-05-15T10:30:44.624Z,22.781372
2023-05-15T10:31:54.539Z,22.690735
2023-05-15T10:33:02.928Z,22.962646
2023-05-15T10:34:12.577Z,22.75116
2023-05-15T10:35:22.299Z,22.811584
2023-05-15T10:36:32.036Z,23.023071
2023-05-15T10:37:41.687Z,23.123779
2023-05-15T10:38:50.344Z,23.103638
2023-05-15T10:39:59.036Z,22.982788
2023-05-15T10:41:17.070Z,23.093567
2023-05-15T10:42:19.408Z,23.214417
2023-05-15T10:43:29.041Z,23.536682
2023-05-15T10:44:36.841Z,23.587036
2023-05-15T10:45:46.505Z,23.929443
2023-05-15T10:46:56.187Z,24.26178
2023-05-15T10:48:04.914Z,24.573975
2023-05-15T10:49:14.581Z,24.775391
2023-05-15T10:50:23.353Z,24.855957
2023-05-15T10:51:31.958Z,25.107727
2023-05-15T10:52:41.609Z,25.228577
2023-05-15T10:53:51.311Z,24.876099
2023-05-15T10:55:01.016Z,24.614258
2023-05-15T10:56:10.711Z,24.473267
2023-05-15T10:57:18.381Z,24.14093
2023-05-15T10:58:28.086Z,23.959656
2023-05-15T10:59:38.702Z,23.838806
2023-05-15T11:00:47.365Z,23.284912
2023-05-15T11:01:57.008Z,22.529602
2023-05-15T11:03:04.722Z,21.925354
2023-05-15T11:04:13.425Z,21.75415
2023-05-15T11:05:23.037Z,21.24054
2023-05-15T11:06:31.701Z,20.797424
2023-05-15T11:07:41.413Z,20.193176
2023-05-15T11:08:51.075Z,19.840698
2023-05-15T11:09:59.744Z,19.256592
2023-05-15T11:11:09.414Z,18.742981
2023-05-15T11:12:18.131Z,18.581848
2023-05-15T11:13:26.809Z,18.330078
2023-05-15T11:14:35.590Z,18.189087
2023-05-15T11:15:43.211Z,18.007812
2023-05-15T11:16:52.952Z,17.947388
2023-05-15T11:18:02.542Z,17.917175
2023-05-15T11:19:11.222Z,17.796326
2023-05-15T11:20:20.980Z,17.635193
2023-05-15T11:21:28.669Z,17.161865
2023-05-15T11:22:37.414Z,17.061157
2023-05-15T11:23:47.083Z,17.121582
2023-05-15T11:24:54.771Z,17.151794
2023-05-15T11:26:04.466Z,17.383423
2023-05-15T11:27:14.207Z,17.34314
2023-05-15T11:28:21.917Z,17.161865
2023-05-15T11:29:32.622Z,17.051086
2023-05-15T11:30:41.427Z,17.09137
2023-05-15T11:31:49.994Z,17.121582
2023-05-15T11:32:59.770Z,17.051086
2023-05-15T11:34:08.429Z,17.051086
2023-05-15T11:35:18.104Z,16.930237
2023-05-15T11:36:26.917Z,16.809387
2023-05-15T11:37:37.645Z,16.678467
2023-05-15T11:38:48.300Z,16.829529
2023-05-15T11:39:57.961Z,16.940308
2023-05-15T11:41:06.667Z,16.859741
2023-05-15T11:42:16.373Z,16.97052
2023-05-15T11:43:24.034Z,17.151794
2023-05-15T11:44:33.738Z,17.242432
2023-05-15T11:45:43.533Z,17.242432
2023-05-15T11:46:51.215Z,17.151794
2023-05-15T11:48:00.914Z,17.151794
2023-05-15T11:49:09.560Z,17.232361
2023-05-15T11:50:18.314Z,17.242432
2023-05-15T11:51:28.000Z,17.333069
2023-05-15T11:52:37.648Z,17.111511
2023-05-15T11:53:47.393Z,16.789246
2023-05-15T11:54:56.124Z,16.507263
2023-05-15T11:56:04.793Z,16.416626
2023-05-15T11:57:14.520Z,16.285706
2023-05-15T11:58:24.205Z,16.426697
2023-05-15T11:59:32.919Z,16.900024
2023-05-15T12:00:42.586Z,17.141724
2023-05-15T12:01:50.280Z,17.635193
2023-05-15T12:03:00.008Z,18.259583
2023-05-15T12:04:08.687Z,18.60199
2023-05-15T12:05:18.421Z,18.501282
2023-05-15T12:06:28.048Z,18.632202
2023-05-15T12:07:36.771Z,18.501282
2023-05-15T12:08:46.512Z,18.179016
2023-05-15T12:09:56.179Z,18.068237
2023-05-15T12:11:04.988Z,17.947388
2023-05-15T12:12:14.670Z,17.796326
2023-05-15T12:13:23.359Z,17.715759
2023-05-15T12:14:33.023Z,17.393494
2023-05-15T12:15:42.714Z,17.121582
2023-05-15T12:16:50.398Z,16.940308
2023-05-15T12:18:00.220Z,16.285706
2023-05-15T12:19:09.790Z,15.953369
2023-05-15T12:20:17.437Z,15.923157
2023-05-15T12:21:27.109Z,15.721741
2023-05-15T12:22:37.735Z,15.731812
2023-05-15T12:23:53.369Z,15.621033
2023-05-15T12:24:58.089Z,15.349121
2023-05-15T12:26:06.747Z,15.469971
2023-05-15T12:27:15.441Z,15.20813
2023-05-15T12:28:25.152Z,15.238342
2023-05-15T12:29:32.826Z,15.167847
2023-05-15T12:30:42.504Z,15.08728
2023-05-15T12:31:51.231Z,15.167847
2023-05-15T12:32:59.926Z,15.057068
2023-05-15T12:34:09.647Z,14.885864
2023-05-15T12:35:18.291Z,15.067139
2023-05-15T12:36:27.938Z,15.167847
2023-05-15T12:37:37.661Z,15.036926
2023-05-15T12:38:46.342Z,15.107422
2023-05-15T12:39:56.005Z,15.107422
2023-05-15T12:41:05.655Z,14.875793
2023-05-15T12:42:15.361Z,14.875793
2023-05-15T12:43:25.063Z,15.147705
2023-05-15T12:44:34.706Z,15.026855
2023-05-15T12:45:44.528Z,14.996643
2023-05-15T12:46:54.108Z,15.026855
2023-05-15T12:48:02.854Z,15.268555
2023-05-15T12:49:12.563Z,15.308838
2023-05-15T12:50:22.210Z,15.349121
2023-05-15T12:51:31.977Z,15.490112
2023-05-15T12:52:40.629Z,15.510254
2023-05-15T12:53:49.356Z,15.4599
2023-05-15T12:54:58.019Z,15.177917
2023-05-15T12:56:06.734Z,15.08728
2023-05-15T12:57:15.410Z,14.885864
2023-05-15T12:58:25.090Z,14.83551
2023-05-15T12:59:34.754Z,14.83551
2023-05-15T13:00:44.472Z,14.634094
2023-05-15T13:01:53.242Z,14.472961
2023-05-15T13:03:02.012Z,14.503174
2023-05-15T13:04:10.521Z,14.805298
2023-05-15T13:05:20.228Z,14.916077
2023-05-15T13:06:42.233Z,14.996643
2023-05-15T13:07:40.530Z,14.855652
2023-05-15T13:08:50.199Z,14.634094
2023-05-15T13:09:59.889Z,14.442749
2023-05-15T13:11:08.600Z,14.603882